Tampa, FL

5:20 AM EDT on August 27, 2016 (GMT -0400)
Knight

Weather History for KTPF - April, 2013

Change the Weather History Date:

Thursday, April 25, 2013

  Actual Average (KTPA) Record (KTPA)
Temperature  
Mean Temperature 74 °F 74 °F  
Max Temperature 86 °F 83 °F 93 °F (1958)
Min Temperature 62 °F 65 °F 52 °F (1903)
Degree Days  
Heating Degree Days 0 0  
Month to date heating degree days 9  
Since 1 July heating degree days 536  
Cooling Degree Days 9 9  
Month to date cooling degree days 173  
Year to date cooling degree days 412  
Growing Degree Days 24 (Base 50)    
Moisture  
Dew Point 61 °F    
Average Humidity 65    
Maximum Humidity 94    
Minimum Humidity 35    
Precipitation  
Precipitation 0.00 in 0.06 in 3.45 in (2003)
Month to date precipitation 1.75  
Year to date precipitation 9.82  
Sea Level Pressure  
Sea Level Pressure 30.17 in    
Wind  
Wind Speed 4 mph (SW)    
Max Wind Speed 10 mph    
Max Gust Speed 18 mph    
Visibility 10 miles    
Events      
T = Trace of Precipitation, MM = Missing Value Source: NWS Daily Summary

Daily Weather History Graph

Daily Weather History Graph

Search for Another Location

Airport or City:

Trip Planner

Search our weather history database for the weather conditions in past years. The results will help you decide how hot, cold, wet, or windy it might be!

Date:

Astronomy

Apr. 25, 2013 Rise Set
Actual Time 6:55 AM EDT 8:00 PM EDT
Civil Twilight 6:30 AM EDT 8:25 PM EDT
Nautical Twilight 6:01 AM EDT 8:54 PM EDT
Astronomical Twilight 5:31 AM EDT 9:24 PM EDT
Moon 8:09 PM EDT (4/25) 6:36 AM EDT (4/25)
Length of Visible Light 13h 54m
Length of Day
13h 05m
Full, 100% of the Moon is Illuminated
Apr 25
Full
Apr 25
Full
May 2
Last Quarter
May 9
New
May 18
First Quarter

Hourly Weather History & Observations

Time (EDT) Temp. Heat Index Dew Point Humidity Pressure Visibility Wind Dir Wind Speed Gust Speed Precip Events Conditions
12:15 AM 69.8 °F - 60.8 °F 73% 30.14 in 10.0 mi East 3.5 mph - N/A   Clear
12:35 AM 71.6 °F - 60.8 °F 69% 30.14 in 10.0 mi East 4.6 mph - N/A   Clear
12:55 AM 71.6 °F - 60.8 °F 69% 30.13 in 10.0 mi SE 5.8 mph - N/A   Clear
1:15 AM 71.6 °F - 60.8 °F 69% 30.12 in 10.0 mi ESE 4.6 mph - N/A   Clear
1:35 AM 71.6 °F - 62.6 °F 73% 30.12 in 10.0 mi SE 5.8 mph - N/A   Clear
1:55 AM 69.8 °F - 60.8 °F 73% 30.12 in 10.0 mi ESE 6.9 mph - N/A   Clear
2:15 AM 69.8 °F - 60.8 °F 73% 30.12 in 10.0 mi ENE 3.5 mph - N/A   Clear
2:35 AM 68.0 °F - 60.8 °F 78% 30.13 in 7.0 mi Calm Calm - N/A   Clear
2:55 AM 68.0 °F - 60.8 °F 78% 30.12 in 10.0 mi Calm Calm - N/A   Clear
3:15 AM 68.0 °F - 60.8 °F 78% 30.12 in 10.0 mi Calm Calm - N/A   Clear
3:35 AM 68.0 °F - 60.8 °F 78% 30.12 in 10.0 mi Calm Calm - N/A   Clear
3:55 AM 68.0 °F - 60.8 °F 78% 30.13 in 10.0 mi Calm Calm - N/A   Clear
4:15 AM 66.2 °F - 60.8 °F 83% 30.13 in 10.0 mi Calm Calm - N/A   Clear
4:35 AM 66.2 °F - 60.8 °F 83% 30.13 in 10.0 mi Calm Calm - N/A   Clear
4:55 AM 66.2 °F - 60.8 °F 83% 30.13 in 10.0 mi Calm Calm - N/A   Clear
5:15 AM 66.2 °F - 62.6 °F 88% 30.14 in 10.0 mi Calm Calm - N/A   Clear
5:35 AM 64.4 °F - 60.8 °F 88% 30.14 in 10.0 mi Calm Calm - N/A   Clear
5:55 AM 64.4 °F - 60.8 °F 88% 30.14 in 10.0 mi Calm Calm - N/A   Clear
6:15 AM 64.4 °F - 60.8 °F 88% 30.15 in 10.0 mi Calm Calm - N/A   Clear
6:35 AM 64.4 °F - 60.8 °F 88% 30.15 in 10.0 mi East 4.6 mph - N/A   Clear
6:55 AM 62.6 °F - 60.8 °F 94% 30.16 in 10.0 mi ENE 3.5 mph - N/A   Clear
7:15 AM 64.4 °F - 60.8 °F 88% 30.16 in 10.0 mi East 4.6 mph - N/A   Clear
7:35 AM 64.4 °F - 60.8 °F 88% 30.17 in 7.0 mi East 4.6 mph - N/A   Clear
7:55 AM 66.2 °F - 60.8 °F 83% 30.17 in 7.0 mi East 3.5 mph - N/A   Clear
8:15 AM 68.0 °F - 62.6 °F 83% 30.18 in 7.0 mi Calm Calm - N/A   Clear
8:35 AM 69.8 °F - 62.6 °F 78% 30.18 in 10.0 mi SE 4.6 mph - N/A   Clear
8:55 AM 71.6 °F - 62.6 °F 73% 30.19 in 10.0 mi South 3.5 mph - N/A   Clear
9:15 AM 73.4 °F - 62.6 °F 69% 30.19 in 10.0 mi South 4.6 mph - N/A   Clear
9:35 AM 73.4 °F - 62.6 °F 69% 30.19 in 10.0 mi South 3.5 mph - N/A   Clear
9:55 AM 75.2 °F - 62.6 °F 65% 30.20 in 10.0 mi South 3.5 mph - N/A   Clear
10:15 AM 77.0 °F - 62.6 °F 61% 30.20 in 10.0 mi SSW 5.8 mph - N/A   Clear
10:35 AM 77.0 °F - 62.6 °F 61% 30.21 in 10.0 mi Calm Calm - N/A   Clear
10:55 AM 77.0 °F - 60.8 °F 57% 30.21 in 10.0 mi SW 4.6 mph - N/A   Clear
11:15 AM 78.8 °F - 60.8 °F 54% 30.22 in 10.0 mi SW 3.5 mph - N/A   Clear
11:35 AM 78.8 °F - 60.8 °F 54% 30.22 in 10.0 mi SW 4.6 mph - N/A   Clear
11:55 AM 80.6 °F 81.5 °F 60.8 °F 51% 30.22 in 10.0 mi SSE 3.5 mph - N/A   Clear
12:15 PM 80.6 °F 81.1 °F 59.0 °F 48% 30.22 in 10.0 mi South 4.6 mph - N/A   Clear
12:35 PM 80.6 °F 81.5 °F 60.8 °F 51% 30.22 in 10.0 mi South 4.6 mph - N/A   Clear
12:55 PM 82.4 °F 82.5 °F 59.0 °F 45% 30.21 in 10.0 mi South 5.8 mph - N/A   Clear
1:15 PM 82.4 °F 82.5 °F 59.0 °F 45% 30.20 in 10.0 mi SSW 4.6 mph - N/A   Clear
1:35 PM 82.4 °F 82.5 °F 59.0 °F 45% 30.20 in 10.0 mi SSW 4.6 mph - N/A   Clear
1:55 PM 84.2 °F 83.8 °F 59.0 °F 42% 30.19 in 10.0 mi SSW 6.9 mph - N/A   Clear
2:15 PM 84.2 °F 83.5 °F 57.2 °F 40% 30.19 in 10.0 mi SSW 3.5 mph - N/A   Clear
2:35 PM 86.0 °F 84.9 °F 57.2 °F 37% 30.18 in 10.0 mi SSW 5.8 mph - N/A   Clear
2:55 PM 86.0 °F 84.5 °F 55.4 °F 35% 30.18 in 10.0 mi West 6.9 mph - N/A   Clear
3:15 PM 86.0 °F 84.9 °F 57.2 °F 37% 30.17 in 10.0 mi West 6.9 mph - N/A   Clear
3:35 PM 84.2 °F 84.4 °F 60.8 °F 45% 30.17 in 10.0 mi WNW 8.1 mph - N/A   Clear
3:55 PM 82.4 °F 83.4 °F 62.6 °F 51% 30.16 in 10.0 mi West 8.1 mph - N/A   Scattered Clouds
4:15 PM 82.4 °F 83.4 °F 62.6 °F 51% 30.15 in 10.0 mi WNW 8.1 mph - N/A   Scattered Clouds
4:35 PM 82.4 °F 83.4 °F 62.6 °F 51% 30.15 in 10.0 mi West 8.1 mph - N/A   Clear
4:55 PM 82.4 °F 83.4 °F 62.6 °F 51% 30.15 in 10.0 mi WNW 9.2 mph - N/A   Scattered Clouds
5:15 PM 82.4 °F 83.4 °F 62.6 °F 51% 30.15 in 10.0 mi WNW 9.2 mph 18.4 mph N/A   Scattered Clouds
5:35 PM 80.6 °F 81.8 °F 62.6 °F 54% 30.15 in 10.0 mi West 9.2 mph - N/A   Clear
5:55 PM 80.6 °F 82.3 °F 64.4 °F 58% 30.15 in 10.0 mi WNW 6.9 mph - N/A   Clear
6:15 PM 80.6 °F 82.3 °F 64.4 °F 58% 30.15 in 10.0 mi WNW 9.2 mph - N/A   Clear
6:35 PM 80.6 °F 81.8 °F 62.6 °F 54% 30.15 in 10.0 mi NW 5.8 mph - N/A   Clear
6:55 PM 78.8 °F - 62.6 °F 57% 30.15 in 10.0 mi NW 6.9 mph - N/A   Clear
7:15 PM 78.8 °F - 60.8 °F 54% 30.15 in 10.0 mi NNW 6.9 mph - N/A   Clear
7:35 PM 77.0 °F - 60.8 °F 57% 30.16 in 10.0 mi NNW 4.6 mph - N/A   Clear
7:55 PM 77.0 °F - 60.8 °F 57% 30.17 in 10.0 mi NNW 6.9 mph - N/A   Clear
8:15 PM 77.0 °F - 60.8 °F 57% 30.17 in 10.0 mi NNW 4.6 mph - N/A   Clear
8:35 PM 75.2 °F - 60.8 °F 61% 30.17 in 10.0 mi Calm Calm - N/A   Clear
8:55 PM 75.2 °F - 60.8 °F 61% 30.18 in 10.0 mi NNW 3.5 mph - N/A   Clear
9:15 PM 73.4 °F - 59.0 °F 61% 30.19 in 10.0 mi North 4.6 mph - N/A   Clear
9:35 PM 73.4 °F - 60.8 °F 65% 30.19 in 10.0 mi North 5.8 mph - N/A   Clear
9:55 PM 73.4 °F - 60.8 °F 65% 30.20 in 10.0 mi North 6.9 mph - N/A   Clear
10:15 PM 73.4 °F - 60.8 °F 65% 30.21 in 10.0 mi North 4.6 mph - N/A   Clear
10:35 PM 71.6 °F - 60.8 °F 69% 30.21 in 10.0 mi North 5.8 mph - N/A   Clear
10:55 PM 71.6 °F - 60.8 °F 69% 30.22 in 10.0 mi Calm Calm - N/A   Clear
11:15 PM 71.6 °F - 60.8 °F 69% 30.22 in 10.0 mi ENE 10.4 mph - N/A   Clear
11:35 PM 71.6 °F - 60.8 °F 69% 30.23 in 10.0 mi East 8.1 mph - N/A   Clear
11:55 PM 71.6 °F - 60.8 °F 69% 30.23 in 10.0 mi East 6.9 mph - N/A   Clear